Flight Track Log - Related Links

Times and Time Zones

All times are in EDT time to prevent confusion due to time zone crossing. See the DAL1810 flight status page for this flight to view local times or setup timezone preferences in your user account.


Time Position Orientation Groundspeed Altitude Reporting Facility
EDT Latitude Longitude Course Direction KTS MPH feet Rate Location/Type
Sun 07:40:27 PM 32.8844 -97.0303 168° South 152 175 1,700  Level FAA TRACON SMA TRACON (SMA)
Sun 07:41:08 PM 32.8483 -97.0208 166° South 202 232 2,900 2,370 Climbing FAA TRACON SMA TRACON (SMA)
Sun 07:41:48 PM 32.8036 -97.0081 139° Southeast 242 278 4,900 3,114 Climbing FAA TRACON SMA TRACON (SMA)
Sun 07:42:27 PM 32.7656 -96.9681 124° Southeast 278 320 7,000 3,190 Climbing FAA TRACON SMA TRACON (SMA)
Sun 07:43:07 PM 32.7378 -96.9194 123° Southeast 288 331 9,100 2,250 Climbing FAA TRACON SMA TRACON (SMA)
Sun 07:43:47 PM 32.7069 -96.8633 102° East 295 339 10,000 675 Climbing FAA TRACON SMA TRACON (SMA)
Sun 07:44:27 PM 32.6956 -96.7983 75° East 307 353 10,000 375 Level FAA TRACON SMA TRACON (SMA)
Sun 07:45:07 PM 32.7114 -96.7297 75° East 312 359 10,500 1,880 Climbing FAA TRACON SMA TRACON (SMA)
Sun 07:45:50 PM 32.7275 -96.6597 75° East 317 365 12,600 2,519 Climbing FAA TRACON SMA TRACON (SMA)
Sun 07:46:28 PM 32.7419 -96.5950 75° East 330 380 13,900 2,154 Climbing FAA TRACON SMA TRACON (SMA)
Sun 07:47:08 PM 32.7594 -96.5156 77° East 361 415 15,400 2,278 Climbing FAA TRACON SMA TRACON (SMA)
Sun 07:47:47 PM 32.7742 -96.4408 87° East 379 436 16,900 2,430 Climbing FAA TRACON SMA TRACON (SMA)
Sun 07:48:27 PM 32.7786 -96.3514 91° East 393 452 18,600 2,550 Climbing FAA TRACON SMA TRACON (SMA)
Sun 07:49:07 PM 32.7772 -96.2611 93° East 397 457 20,300 2,148 Climbing FAA TRACON SMA TRACON (SMA)
Sun 07:49:48 PM 32.7742 -96.1792 92° East 405 466 21,500 1,952 Climbing FAA TRACON SMA TRACON (SMA)
Sun 07:50:30 PM 32.7711 -96.0739 91° East 417 480 23,000 1,671 Climbing FAA TRACON SMA TRACON (SMA)
Sun 07:51:07 PM 32.7694 -95.9864 92° East 431 496 23,700 923 Climbing FAA TRACON SMA TRACON (SMA)
Sun 07:51:48 PM 32.7672 -95.8947 92° East 455 524 24,200 1,107 Climbing FAA TRACON SMA TRACON (SMA)
Sun 07:52:50 PM 32.7619 -95.7458 92° East 459 528 25,600 1,574 Climbing Fort Worth Center
Sun 07:53:50 PM 32.7575 -95.5928 92° East 465 535 27,400 1,550 Climbing Fort Worth Center
Sun 07:54:50 PM 32.7531 -95.4347 93° East 465 535 28,700 1,289 Climbing Fort Worth Center
Sun 07:55:51 PM 32.7442 -95.2622 93° East 465 535 30,000 1,400 Climbing Fort Worth Center
Sun 07:56:50 PM 32.7372 -95.1092 91° East 465 535 31,500 1,261 Climbing Fort Worth Center
Sun 07:57:50 PM 32.7342 -94.9536 93° East 465 535 32,500 1,050 Climbing Fort Worth Center
Sun 07:58:50 PM 32.7269 -94.8008 92° East 465 535 33,600 1,050 Climbing Fort Worth Center
Sun 07:59:50 PM 32.7217 -94.6478 92° East 465 535 34,600 700 Climbing Fort Worth Center
Sun 08:00:50 PM 32.7161 -94.4950 93° East 460 529 35,000 200 Climbing Fort Worth Center
Sun 08:01:50 PM 32.7103 -94.3419 92° East 460 529 35,000  Level Fort Worth Center
Sun 08:02:50 PM 32.7064 -94.1892 93° East 460 529 35,000  Level Fort Worth Center
Sun 08:03:50 PM 32.7003 -94.0339 94° East 460 529 35,000  Level Fort Worth Center
Sun 08:04:50 PM 32.6919 -93.8786 91° East 460 529 35,000  Level Fort Worth Center
Sun 08:05:50 PM 32.6900 -93.7381 94° East 460 529 35,000  Level Fort Worth Center
Sun 08:06:50 PM 32.6814 -93.5878 92° East 460 529 35,000  Level Fort Worth Center
Sun 08:07:51 PM 32.6764 -93.4325 93° East 460 529 35,000  Level Fort Worth Center
Sun 08:08:50 PM 32.6694 -93.2775 92° East 460 529 35,000  Level Fort Worth Center
Sun 08:09:50 PM 32.6642 -93.1247 93° East 460 529 35,000  Level Fort Worth Center
Sun 08:10:50 PM 32.6569 -92.9744 87° East 460 529 35,000  Level Fort Worth Center
Sun 08:11:50 PM 32.6639 -92.8211 81° East 460 529 35,000  Level Fort Worth Center
Sun 08:12:50 PM 32.6833 -92.6697 78° East 460 529 35,000  Level Fort Worth Center
Sun 08:13:50 PM 32.7092 -92.5228 80° East 460 529 35,000  Level Fort Worth Center
Sun 08:14:50 PM 32.7306 -92.3758 74° East 455 524 35,000  Level Fort Worth Center
Sun 08:15:50 PM 32.7664 -92.2306 73° East 450 518 35,000  Level Fort Worth Center
Sun 08:17:28 PM 32.8306 -91.9842 69° East 460 529 35,000  Level Memphis Center
Sun 08:18:28 PM 32.8761 -91.8414 66° East 460 529 35,000  Level Memphis Center
Sun 08:19:28 PM 32.9278 -91.7061 66° East 460 529 35,000  Level Memphis Center
Sun 08:20:28 PM 32.9792 -91.5683 73° East 450 518 35,000  Level Memphis Center
Sun 08:21:28 PM 33.0161 -91.4225 92° East 450 518 35,000  Level Memphis Center
Sun 08:22:28 PM 33.0111 -91.2689 96° East 450 518 35,000  Level Memphis Center
Sun 08:23:28 PM 32.9975 -91.1153 96° East 450 518 35,000  Level Memphis Center
Sun 08:24:28 PM 32.9856 -90.9739 96° East 467 537 35,000  Level Memphis Center
Sun 08:25:28 PM 32.9717 -90.8203 95° East 472 543 35,000  Level Memphis Center
Sun 08:26:28 PM 32.9597 -90.6692 95° East 467 537 35,000  Level Memphis Center
Sun 08:27:28 PM 32.9475 -90.5133 95° East 467 537 35,000  Level Memphis Center
Sun 08:28:29 PM 32.9369 -90.3597 96° East 462 532 35,000  Level Memphis Center
Sun 08:29:28 PM 32.9222 -90.2039 96° East 462 532 35,000  Level Memphis Center
Sun 08:30:28 PM 32.9094 -90.0578 98° East 457 526 35,000  Level Memphis Center
Sun 08:31:28 PM 32.8922 -89.9044 94° East 457 526 35,000  Level Memphis Center
Sun 08:32:28 PM 32.8833 -89.7439 96° East 480 552 35,000  Level Memphis Center
Sun 08:33:28 PM 32.8697 -89.5781 96° East 476 548 35,000  Level Memphis Center
Sun 08:34:28 PM 32.8564 -89.4297 96° East 457 526 35,000  Level Memphis Center
Sun 08:35:28 PM 32.8425 -89.2792 96° East 452 520 35,000  Level Memphis Center
Sun 08:36:28 PM 32.8286 -89.1311 96° East 452 520 35,000  Level Memphis Center
Sun 08:37:28 PM 32.8144 -88.9828 97° East 452 520 35,000 -50 Level Memphis Center
Sun 08:38:28 PM 32.8003 -88.8372 97° East 452 520 34,900 -950 Descending Memphis Center
Sun 08:39:28 PM 32.7858 -88.6892 95° East 441 507 33,100 -950 Descending Memphis Center
Sun 08:40:28 PM 32.7758 -88.5536 97° East 451 519 33,000 -50 Descending Memphis Center
Sun 08:41:28 PM 32.7611 -88.4081 96° East 451 519 33,000  Level Memphis Center
Sun 08:42:28 PM 32.7483 -88.2675 98° East 438 504 33,000  Level Memphis Center
Sun 08:44:28 PM 32.7167 -87.9864 97° East 433 498 33,000  Level Atlanta Center
Sun 08:45:28 PM 32.7025 -87.8403 97° East 433 498 33,000 -250 Level Atlanta Center
Sun 08:46:28 PM 32.6881 -87.6964 97° East 433 498 32,500 -700 Descending Atlanta Center
Sun 08:47:28 PM 32.6717 -87.5403 96° East 433 498 31,600 -750 Descending Atlanta Center
Sun 08:48:28 PM 32.6589 -87.3967 98° East 433 498 31,000 -300 Descending Atlanta Center
Sun 08:49:28 PM 32.6419 -87.2531 96° East 433 498 31,000  Level Atlanta Center
Sun 08:50:28 PM 32.6289 -87.1144 98° East 433 498 31,000  Level Atlanta Center
Sun 08:51:28 PM 32.6114 -86.9733 98° East 426 490 31,000  Level Atlanta Center
Sun 08:52:28 PM 32.5958 -86.8347 124° Southeast 426 490 31,000  Level Atlanta Center
Sun 08:53:28 PM 32.5336 -86.7244 180° South 412 474 31,000  Level Atlanta Center
Sun 08:54:28 PM 32.4167 -86.7233 233° Southwest 340 391 31,000  Level Atlanta Center
Sun 08:55:28 PM 32.3453 -86.8367 250° West 304 350 31,000  Level Atlanta Center
Sun 08:56:28 PM 32.3047 -86.9656 269° West 375 432 31,000 -200 Level Atlanta Center
Sun 08:57:28 PM 32.3036 -87.0933 289° West 390 449 30,600 -1,400 Descending Atlanta Center
Sun 08:58:28 PM 32.3344 -87.2000 295° West 383 441 28,200 -2,250 Descending Atlanta Center
Sun 08:59:28 PM 32.3775 -87.3072 345° North 377 434 26,100 -1,100 Descending Atlanta Center
Sun 09:00:28 PM 32.4747 -87.3381 56° Northeast 325 374 26,000 -50 Descending Atlanta Center
Sun 09:01:28 PM 32.5317 -87.2367 116° Southeast 287 330 26,000  Level Atlanta Center
Sun 09:02:28 PM 32.4844 -87.1242 122° Southeast 273 314 26,000 -550 Level Atlanta Center
Sun 09:03:28 PM 32.4286 -87.0164 119° Southeast 334 384 24,900 -1,000 Descending Atlanta Center
Sun 09:04:28 PM 32.3731 -86.8964 121° Southeast 366 421 24,000 -450 Descending Atlanta Center
Sun 09:05:28 PM 32.3192 -86.7892 118° Southeast 382 440 24,000  Level Atlanta Center
Sun 09:06:28 PM 32.2794 -86.6994 119° Southeast 375 432 24,000  Level Atlanta Center
Sun 09:07:28 PM 32.2275 -86.5900 120° Southeast 370 426 24,000  Level Atlanta Center
Sun 09:08:28 PM 32.1753 -86.4828 122° Southeast 365 420 24,000  Level Atlanta Center
Sun 09:09:28 PM 32.1108 -86.3633 120° Southeast 382 440 24,000  Level Atlanta Center
Sun 09:10:28 PM 32.0567 -86.2542 118° Southeast 394 453 24,000  Level Atlanta Center
Sun 09:11:28 PM 32.0064 -86.1428 99° East 388 447 24,000  Level Atlanta Center
Sun 09:12:28 PM 31.9933 -86.0419 41° Northeast 355 409 24,000  Level Atlanta Center
Sun 09:13:28 PM 32.0719 -85.9606 34° Northeast 302 348 24,000  Level Atlanta Center
Sun 09:14:28 PM 32.1606 -85.8889 33° Northeast 316 364 24,000  Level Atlanta Center
Sun 09:15:28 PM 32.2472 -85.8217 32° Northeast 340 391 24,000  Level Atlanta Center
Sun 09:16:28 PM 32.3378 -85.7547 34° Northeast 364 419 24,000  Level Atlanta Center
Sun 09:17:28 PM 32.4222 -85.6875 33° Northeast 379 436 24,000  Level Atlanta Center
Sun 09:18:28 PM 32.5089 -85.6203 33° Northeast 373 429 24,000  Level Atlanta Center
Sun 09:19:28 PM 32.5953 -85.5528 32° Northeast 368 423 24,000 -800 Level Atlanta Center
Sun 09:20:28 PM 32.6817 -85.4875 32° Northeast 368 423 22,400 -1,650 Descending Atlanta Center
Sun 09:21:28 PM 32.7658 -85.4247 35° Northeast 363 418 20,700 -2,000 Descending Atlanta Center
Sun 09:22:28 PM 32.8481 -85.3567 34° Northeast 358 412 18,400 -2,600 Descending Atlanta Center
Sun 09:23:28 PM 32.9342 -85.2886 32° Northeast 359 413 15,500 -2,400 Descending Atlanta Center
Sun 09:24:28 PM 33.0119 -85.2303 40° Northeast 364 419 13,600 -1,750 Descending Atlanta Center
Sun 09:25:28 PM 33.0942 -85.1472 48° Northeast 364 419 12,000 -800 Descending Atlanta Center
Sun 09:26:28 PM 33.1597 -85.0611 42° Northeast 350 403 12,000 -300 Level Atlanta Center
Sun 09:27:28 PM 33.2250 -84.9900 30° Northeast 327 376 11,400 -1,050 Descending Atlanta Center
Sun 09:28:28 PM 33.2964 -84.9411 24° Northeast 304 350 9,900 -1,650 Descending Atlanta Center
Sun 09:29:28 PM 33.3697 -84.9019 North 284 327 8,100 -950 Descending Atlanta Center
Sun 09:30:28 PM 33.4406 -84.8978 16° North 278 320 8,000 -150 Descending Atlanta Center
Sun 09:31:28 PM 33.5158 -84.8711 22° Northeast 278 320 7,800 -700 Descending Atlanta Center
Sun 09:32:28 PM 33.5872 -84.8367 44° Northeast 278 320 6,600 -1,059 Descending Atlanta Center
Sun 09:33:10 PM 33.6333 -84.7833 90° East 257 296 6,000 -824 Descending Atlanta TRACON
Sun 09:34:10 PM 33.6333 -84.7000 90° East 254 292 5,200 -1,150 Descending Atlanta TRACON
Sun 09:35:10 PM 33.6333 -84.6167 90° East 252 290 3,700 -1,300 Descending Atlanta TRACON
Sun 09:36:10 PM 33.6333 -84.5500 90° East 206 237 2,600 -950 Descending Atlanta TRACON
Sun 09:37:10 PM 33.6333 -84.5000 264° West 154 177 1,800 -800 Descending Atlanta TRACON

Login

Don't have an account? Register now (free) for customized features, flight alerts, and more!